createdAt,value
2022-11-05T00:01:02.865Z,101682.09
2022-11-05T00:03:48.661Z,101672.41
2022-11-05T00:06:34.349Z,101673.34
2022-11-05T00:09:19.971Z,101681.31
2022-11-05T00:12:05.453Z,101685.78
2022-11-05T00:14:51.146Z,101677.88
2022-11-05T00:17:18.015Z,101682.34
2022-11-05T00:19:44.913Z,101684.13
2022-11-05T00:22:30.560Z,101690.34
2022-11-05T00:25:16.211Z,101701.88
2022-11-05T00:27:52.636Z,101702.75
2022-11-05T00:30:25.418Z,101709.88
2022-11-05T00:32:53.493Z,101707.25
2022-11-05T00:35:22.575Z,101709.03
2022-11-05T00:37:50.598Z,101713.44
2022-11-05T00:40:18.200Z,101713.50
2022-11-05T00:43:03.926Z,101711.75
2022-11-05T00:45:31.948Z,101711.78
2022-11-05T00:48:19.104Z,101725.00
2022-11-05T00:50:46.450Z,101725.91
2022-11-05T00:53:13.809Z,101725.91
2022-11-05T00:55:46.299Z,101736.47
2022-11-05T00:58:17.223Z,101740.91
2022-11-05T01:00:53.301Z,101741.81
2022-11-05T01:03:23.702Z,101740.91
2022-11-05T01:06:09.902Z,101740.03
2022-11-05T01:08:37.388Z,101747.06
2022-11-05T01:11:36.840Z,101749.75
2022-11-05T01:14:10.518Z,101749.75
2022-11-05T01:16:39.699Z,101755.91
2022-11-05T01:19:09.538Z,101755.03
2022-11-05T01:21:36.874Z,101757.66
2022-11-05T01:24:04.464Z,101762.97
2022-11-05T01:26:31.375Z,101755.94
2022-11-05T01:29:02.066Z,101748.00
2022-11-05T01:31:29.101Z,101750.63
2022-11-05T01:33:56.078Z,101753.28
2022-11-05T01:36:22.949Z,101762.97
2022-11-05T01:38:49.832Z,101761.19
2022-11-05T01:41:16.720Z,101768.28
2022-11-05T01:43:56.926Z,101767.38
2022-11-05T01:46:50.109Z,101781.41
2022-11-05T01:49:32.042Z,101777.03
2022-11-05T01:52:03.519Z,101776.13
2022-11-05T01:54:32.497Z,101768.22
2022-11-05T01:57:08.521Z,101769.09
2022-11-05T01:59:44.396Z,101763.81
2022-11-05T02:02:11.515Z,101761.19
2022-11-05T02:04:59.178Z,101755.91
2022-11-05T02:07:28.439Z,101757.66
2022-11-05T02:10:13.793Z,101748.84
2022-11-05T02:12:45.860Z,101748.00
2022-11-05T02:15:36.803Z,101748.84
2022-11-05T02:18:06.457Z,101748.00
2022-11-05T02:20:40.816Z,101745.34
2022-11-05T02:23:40.676Z,101743.59
2022-11-05T02:26:37.643Z,101745.34
2022-11-05T02:29:25.788Z,101752.38
2022-11-05T02:32:13.798Z,101738.28
2022-11-05T02:35:17.670Z,101743.56
2022-11-05T02:37:54.434Z,101740.91
2022-11-05T02:40:53.691Z,101743.56
2022-11-05T02:43:53.898Z,101748.84
2022-11-05T02:46:32.782Z,101741.78
2022-11-05T02:49:32.101Z,101748.84
2022-11-05T02:52:09.770Z,101754.09
2022-11-05T02:54:57.862Z,101741.81
2022-11-05T02:57:24.803Z,101740.03
2022-11-05T03:00:03.994Z,101738.28
2022-11-05T03:02:31.167Z,101738.28
2022-11-05T03:04:59.512Z,101738.25
2022-11-05T03:07:59.455Z,101737.41
2022-11-05T03:10:38.117Z,101743.56
2022-11-05T03:13:17.597Z,101733.84
2022-11-05T03:15:57.483Z,101739.13
2022-11-05T03:18:47.675Z,101736.50
2022-11-05T03:21:42.106Z,101747.03
2022-11-05T03:24:18.680Z,101742.63
2022-11-05T03:27:02.720Z,101743.50
2022-11-05T03:29:41.562Z,101747.91
2022-11-05T03:32:10.503Z,101750.53
2022-11-05T03:34:44.526Z,101753.16
2022-11-05T03:37:12.121Z,101749.63
2022-11-05T03:39:52.274Z,101743.50
2022-11-05T03:42:26.287Z,101755.78
2022-11-05T03:44:57.558Z,101753.13
2022-11-05T03:47:34.477Z,101748.75
2022-11-05T03:50:18.034Z,101748.75
2022-11-05T03:52:53.847Z,101744.38
2022-11-05T03:55:28.328Z,101753.16
2022-11-05T03:57:58.233Z,101761.03
2022-11-05T04:00:25.403Z,101758.44
2022-11-05T04:02:52.403Z,101762.81
2022-11-05T04:05:19.495Z,101764.56
2022-11-05T04:08:14.509Z,101762.81
2022-11-05T04:11:04.648Z,101758.44
2022-11-05T04:13:33.156Z,101767.19
2022-11-05T04:16:35.629Z,101763.69
2022-11-05T04:19:02.652Z,101760.19
2022-11-05T04:21:47.947Z,101776.88
2022-11-05T04:24:14.863Z,101771.59
2022-11-05T04:26:44.125Z,101776.91
2022-11-05T04:29:30.596Z,101772.50
2022-11-05T04:31:57.491Z,101773.34
2022-11-05T04:34:24.521Z,101776.88
2022-11-05T04:36:53.936Z,101773.41
2022-11-05T04:39:21.519Z,101778.66
2022-11-05T04:41:49.014Z,101774.31
2022-11-05T04:44:17.102Z,101774.31
2022-11-05T04:46:44.268Z,101777.81
2022-11-05T04:49:11.183Z,101776.09
2022-11-05T04:51:38.116Z,101775.22
2022-11-05T04:54:05.044Z,101782.25
2022-11-05T04:56:32.126Z,101785.78
2022-11-05T04:58:59.068Z,101780.50
2022-11-05T05:01:26.066Z,101787.53
2022-11-05T05:03:54.587Z,101784.03
2022-11-05T05:06:22.464Z,101782.28
2022-11-05T05:08:51.064Z,101787.56
2022-11-05T05:11:21.463Z,101784.94
2022-11-05T05:13:49.637Z,101783.16
2022-11-05T05:16:27.431Z,101785.81
2022-11-05T05:18:55.013Z,101792.84
2022-11-05T05:21:38.859Z,101792.88
2022-11-05T05:24:08.779Z,101787.59
2022-11-05T05:26:41.724Z,101784.06
2022-11-05T05:29:10.633Z,101778.81
2022-11-05T05:31:38.105Z,101785.00
2022-11-05T05:34:06.991Z,101779.72
2022-11-05T05:36:34.574Z,101777.97
2022-11-05T05:39:01.640Z,101777.97
2022-11-05T05:41:28.707Z,101782.34
2022-11-05T05:43:55.642Z,101780.59
2022-11-05T05:46:22.579Z,101785.00
2022-11-05T05:48:52.964Z,101788.50
2022-11-05T05:51:20.041Z,101795.50
2022-11-05T05:53:47.031Z,101799.03
2022-11-05T05:56:20.359Z,101799.94
2022-11-05T05:58:48.164Z,101801.69
2022-11-05T06:01:19.725Z,101800.78
2022-11-05T06:03:48.559Z,101802.53
2022-11-05T06:06:21.054Z,101810.44
2022-11-05T06:08:48.970Z,101815.75
2022-11-05T06:11:16.107Z,101815.75
2022-11-05T06:13:43.063Z,101821.91
2022-11-05T06:16:11.136Z,101816.59
2022-11-05T06:18:38.678Z,101813.97
2022-11-05T06:21:08.913Z,101817.50
2022-11-05T06:23:37.965Z,101817.47
2022-11-05T06:26:09.242Z,101817.47
2022-11-05T06:28:36.749Z,101813.94
2022-11-05T06:31:04.891Z,101820.06
2022-11-05T06:33:32.018Z,101817.44
2022-11-05T06:35:59.850Z,101820.94
2022-11-05T06:38:27.317Z,101823.56
2022-11-05T06:40:54.180Z,101820.91
2022-11-05T06:43:21.048Z,101824.44
2022-11-05T06:45:47.919Z,101827.97
2022-11-05T06:48:14.790Z,101826.22
2022-11-05T06:50:45.696Z,101822.72
2022-11-05T06:53:13.918Z,101828.88
2022-11-05T06:55:41.394Z,101833.28
2022-11-05T06:58:08.348Z,101835.03
2022-11-05T07:00:35.363Z,101842.97
2022-11-05T07:03:10.964Z,101839.44
2022-11-05T07:05:45.891Z,101846.50
2022-11-05T07:08:12.795Z,101847.38
2022-11-05T07:10:39.727Z,101847.38
2022-11-05T07:13:08.346Z,101847.38
2022-11-05T07:15:36.826Z,101854.44
2022-11-05T07:18:07.118Z,101853.53
2022-11-05T07:20:34.704Z,101850.06
2022-11-05T07:23:08.204Z,101857.09
2022-11-05T07:25:35.999Z,101854.47
2022-11-05T07:28:04.285Z,101856.22
2022-11-05T07:30:33.417Z,101851.81
2022-11-05T07:33:00.571Z,101851.81
2022-11-05T07:35:28.028Z,101853.59
2022-11-05T07:37:55.622Z,101848.34
2022-11-05T07:40:25.704Z,101851.84
2022-11-05T07:42:57.211Z,101856.25
2022-11-05T07:45:25.470Z,101862.47
2022-11-05T07:48:01.481Z,101859.81
2022-11-05T07:50:35.142Z,101860.69
2022-11-05T07:53:13.087Z,101863.34
2022-11-05T07:55:45.873Z,101872.16
2022-11-05T07:58:13.399Z,101871.28
2022-11-05T08:00:40.661Z,101865.09
2022-11-05T08:03:16.955Z,101866.88
2022-11-05T08:05:47.341Z,101871.31
2022-11-05T08:08:19.097Z,101873.03
2022-11-05T08:10:46.610Z,101867.78
2022-11-05T08:13:15.066Z,101869.53
2022-11-05T08:15:43.178Z,101866.00
2022-11-05T08:18:16.806Z,101868.66
2022-11-05T08:20:45.304Z,101861.59
2022-11-05T08:23:12.815Z,101861.59
2022-11-05T08:25:40.922Z,101859.84
2022-11-05T08:28:11.675Z,101862.44
2022-11-05T08:30:38.611Z,101860.69
2022-11-05T08:33:12.931Z,101862.44
2022-11-05T08:35:40.905Z,101862.44
2022-11-05T08:38:13.443Z,101862.41
2022-11-05T08:40:41.582Z,101865.91
2022-11-05T08:43:10.741Z,101863.25
2022-11-05T08:45:38.724Z,101862.34
2022-11-05T08:48:15.248Z,101864.09
2022-11-05T08:50:44.042Z,101871.13
2022-11-05T08:53:12.244Z,101865.84
2022-11-05T08:55:39.428Z,101867.56
2022-11-05T08:58:12.478Z,101867.56
2022-11-05T09:00:40.783Z,101863.13
2022-11-05T09:03:09.985Z,101874.56
2022-11-05T09:05:39.460Z,101870.13
2022-11-05T09:08:09.909Z,101876.28
2022-11-05T09:10:37.274Z,101868.31
2022-11-05T09:13:04.963Z,101862.13
2022-11-05T09:15:32.308Z,101863.88
2022-11-05T09:17:59.751Z,101863.81
2022-11-05T09:20:26.677Z,101859.34
2022-11-05T09:22:54.013Z,101861.09
2022-11-05T09:25:20.970Z,101869.88
2022-11-05T09:27:47.850Z,101859.16
2022-11-05T09:30:15.010Z,101858.13
2022-11-05T09:32:42.173Z,101862.41
2022-11-05T09:35:09.781Z,101857.78
2022-11-05T09:37:38.100Z,101859.41
2022-11-05T09:40:06.173Z,101861.56
2022-11-05T09:42:41.017Z,101865.75
2022-11-05T09:45:18.387Z,101867.22
2022-11-05T09:48:00.296Z,101870.72
2022-11-05T09:50:37.559Z,101866.06
2022-11-05T09:53:05.828Z,101864.13
2022-11-05T09:55:42.066Z,101870.09
2022-11-05T09:58:43.676Z,101877.19
2022-11-05T10:01:26.049Z,101871.88
2022-11-05T10:03:58.273Z,101887.13
2022-11-05T10:06:26.946Z,101886.22
2022-11-05T10:09:18.070Z,101877.06
2022-11-05T10:11:51.786Z,101883.75
2022-11-05T10:14:31.309Z,101880.56
2022-11-05T10:17:11.711Z,101875.06
2022-11-05T10:20:11.234Z,101874.31
2022-11-05T10:22:39.035Z,101874.41
2022-11-05T10:25:18.545Z,101884.00
2022-11-05T10:27:55.465Z,101890.22
2022-11-05T10:30:22.917Z,101886.69
2022-11-05T10:32:55.837Z,101888.56
2022-11-05T10:35:25.784Z,101888.59
2022-11-05T10:37:55.977Z,101893.19
2022-11-05T10:40:37.507Z,101887.81
2022-11-05T10:43:17.749Z,101889.69
2022-11-05T10:46:36.075Z,101893.25
2022-11-05T10:49:30.615Z,101883.53
2022-11-05T10:51:59.071Z,101882.50
2022-11-05T10:54:34.114Z,101887.03
2022-11-05T10:57:01.046Z,101889.66
2022-11-05T10:59:29.947Z,101892.28
2022-11-05T11:02:08.262Z,101890.41
2022-11-05T11:04:38.136Z,101889.69
2022-11-05T11:07:05.576Z,101886.28
2022-11-05T11:09:36.134Z,101895.16
2022-11-05T11:12:15.623Z,101896.00
2022-11-05T11:14:42.795Z,101892.38
2022-11-05T11:17:29.705Z,101895.16
2022-11-05T11:20:31.302Z,101894.41
2022-11-05T11:23:15.569Z,101885.44
2022-11-05T11:25:50.062Z,101897.94
2022-11-05T11:28:23.696Z,101896.09
2022-11-05T11:31:11.598Z,101895.16
2022-11-05T11:33:42.544Z,101887.16
2022-11-05T11:36:12.230Z,101888.03
2022-11-05T11:38:40.174Z,101887.13
2022-11-05T11:41:32.238Z,101896.88
2022-11-05T11:44:18.985Z,101899.50
2022-11-05T11:46:56.870Z,101894.06
2022-11-05T11:49:40.031Z,101894.97
2022-11-05T11:52:15.898Z,101893.25
2022-11-05T11:54:43.437Z,101885.25
2022-11-05T11:57:29.978Z,101878.09
2022-11-05T12:00:08.860Z,101876.41
2022-11-05T12:03:12.036Z,101879.13
2022-11-05T12:06:16.326Z,101871.97
2022-11-05T12:09:17.775Z,101867.47
2022-11-05T12:12:05.463Z,101870.97
2022-11-05T12:14:48.866Z,101875.25
2022-11-05T12:17:46.047Z,101875.22
2022-11-05T12:20:59.005Z,101885.81
2022-11-05T12:24:00.119Z,101873.28
2022-11-05T12:26:37.456Z,101875.81
2022-11-05T12:29:42.738Z,101867.78
2022-11-05T12:32:37.520Z,101862.06
2022-11-05T12:35:34.911Z,101850.31
2022-11-05T12:38:22.390Z,101854.63
2022-11-05T12:41:07.292Z,101854.47
2022-11-05T12:44:01.836Z,101838.44
2022-11-05T12:46:39.193Z,101846.38
2022-11-05T12:49:24.131Z,101845.56
2022-11-05T12:52:20.554Z,101838.31
2022-11-05T12:55:11.547Z,101846.31
2022-11-05T12:57:43.287Z,101851.66
2022-11-05T13:00:28.351Z,101840.25
2022-11-05T13:03:10.149Z,101837.75
2022-11-05T13:05:43.588Z,101838.66
2022-11-05T13:08:30.670Z,101835.19
2022-11-05T13:11:11.892Z,101838.75
2022-11-05T13:14:22.746Z,101837.13
2022-11-05T13:17:07.659Z,101827.31
2022-11-05T13:20:00.751Z,101826.41
2022-11-05T13:22:44.662Z,101814.00
2022-11-05T13:25:26.569Z,101803.22
2022-11-05T13:28:19.414Z,101805.22
2022-11-05T13:30:55.261Z,101800.69
2022-11-05T13:33:48.010Z,101792.78
2022-11-05T13:36:44.265Z,101790.97
2022-11-05T13:39:30.679Z,101791.75
2022-11-05T13:42:45.134Z,101796.03
2022-11-05T13:45:51.344Z,101801.38
2022-11-05T13:48:50.893Z,101793.34
2022-11-05T13:51:40.226Z,101796.88
2022-11-05T13:54:45.299Z,101791.66
2022-11-05T13:57:40.646Z,101789.94
2022-11-05T14:00:24.067Z,101783.81
2022-11-05T14:03:01.742Z,101791.00
2022-11-05T14:05:37.349Z,101793.66
2022-11-05T14:08:17.749Z,101802.59
2022-11-05T14:11:00.499Z,101804.38
2022-11-05T14:13:38.008Z,101805.34
2022-11-05T14:16:08.954Z,101801.88
2022-11-05T14:18:37.208Z,101796.50
2022-11-05T14:21:06.829Z,101801.09
2022-11-05T14:23:39.927Z,101803.78
2022-11-05T14:26:14.414Z,101802.00
2022-11-05T14:28:49.224Z,101801.22
2022-11-05T14:31:19.044Z,101806.59
2022-11-05T14:34:17.112Z,101799.47
2022-11-05T14:37:11.047Z,101793.38
2022-11-05T14:39:39.360Z,101796.09
2022-11-05T14:42:30.489Z,101799.69
2022-11-05T14:45:39.625Z,101804.25
2022-11-05T14:48:38.051Z,101790.13
2022-11-05T14:51:26.859Z,101794.63
2022-11-05T14:54:07.044Z,101798.25
2022-11-05T14:56:50.510Z,101794.78
2022-11-05T14:59:34.193Z,101796.63
2022-11-05T15:02:02.276Z,101794.91
2022-11-05T15:04:33.101Z,101794.00
2022-11-05T15:07:03.139Z,101802.84
2022-11-05T15:09:46.618Z,101799.38
2022-11-05T15:12:33.114Z,101797.56
2022-11-05T15:15:22.000Z,101793.19
2022-11-05T15:18:00.486Z,101797.59
2022-11-05T15:20:55.028Z,101798.47
2022-11-05T15:23:26.323Z,101791.41
2022-11-05T15:26:31.298Z,101792.25
2022-11-05T15:28:58.415Z,101790.53
2022-11-05T15:31:36.389Z,101791.38
2022-11-05T15:34:17.922Z,101790.56
2022-11-05T15:37:18.434Z,101787.03
2022-11-05T15:39:48.648Z,101786.22
2022-11-05T15:42:25.335Z,101775.63
2022-11-05T15:45:00.035Z,101777.41
2022-11-05T15:47:29.136Z,101778.28
2022-11-05T15:50:02.075Z,101779.16
2022-11-05T15:52:36.323Z,101772.03
2022-11-05T15:55:19.905Z,101767.75
2022-11-05T15:58:00.215Z,101774.75
2022-11-05T16:00:30.644Z,101763.28
2022-11-05T16:03:18.514Z,101768.66
2022-11-05T16:05:48.160Z,101774.03
2022-11-05T16:08:28.386Z,101775.75
2022-11-05T16:10:59.510Z,101775.81
2022-11-05T16:13:39.739Z,101765.19
2022-11-05T16:16:32.050Z,101765.22
2022-11-05T16:18:59.205Z,101767.91
2022-11-05T16:21:26.134Z,101766.13
2022-11-05T16:23:56.593Z,101768.78
2022-11-05T16:29:33.621Z,101757.34
2022-11-05T16:32:04.752Z,101754.59
2022-11-05T16:34:41.469Z,101748.50
2022-11-05T16:37:14.856Z,101757.38
2022-11-05T16:39:42.324Z,101743.19
2022-11-05T16:42:26.913Z,101750.31
2022-11-05T16:44:55.496Z,101758.28
2022-11-05T16:47:23.403Z,101765.41
2022-11-05T16:49:50.927Z,101760.09
2022-11-05T16:52:18.516Z,101755.72
2022-11-05T16:54:45.456Z,101760.09
2022-11-05T16:57:28.293Z,101755.72
2022-11-05T16:59:57.002Z,101762.81
2022-11-05T17:02:24.118Z,101762.81
2022-11-05T17:04:51.293Z,101751.28
2022-11-05T17:07:18.314Z,101758.41
2022-11-05T17:09:45.348Z,101757.56
2022-11-05T17:12:13.092Z,101756.66
2022-11-05T17:14:40.129Z,101757.56
2022-11-05T17:17:07.502Z,101755.78
2022-11-05T17:19:34.525Z,101751.38
2022-11-05T17:22:01.427Z,101757.56
2022-11-05T17:24:28.289Z,101760.25
2022-11-05T17:26:55.160Z,101756.69
2022-11-05T17:29:22.027Z,101757.59
2022-11-05T17:31:49.033Z,101762.09
2022-11-05T17:34:16.004Z,101760.25
2022-11-05T17:36:42.954Z,101750.50
2022-11-05T17:39:10.898Z,101752.31
2022-11-05T17:41:37.761Z,101757.63
2022-11-05T17:44:04.708Z,101764.69
2022-11-05T17:46:31.830Z,101768.22
2022-11-05T17:48:58.710Z,101770.88
2022-11-05T17:51:25.610Z,101771.75
2022-11-05T17:53:52.556Z,101775.28
2022-11-05T17:56:32.238Z,101782.38
2022-11-05T17:59:02.527Z,101785.00
2022-11-05T18:01:33.095Z,101781.50
2022-11-05T18:04:05.399Z,101785.03
2022-11-05T18:06:39.378Z,101790.31
2022-11-05T18:09:09.063Z,101786.78
2022-11-05T18:11:36.980Z,101784.13
2022-11-05T18:14:04.615Z,101775.28
2022-11-05T18:16:32.646Z,101779.66
2022-11-05T18:18:59.522Z,101769.97
2022-11-05T18:21:26.627Z,101767.34
2022-11-05T18:23:53.561Z,101761.22
2022-11-05T18:26:21.002Z,101763.00
2022-11-05T18:28:47.893Z,101754.19
2022-11-05T18:31:20.441Z,101755.97
2022-11-05T18:33:49.862Z,101757.75
2022-11-05T18:36:22.852Z,101760.41
2022-11-05T18:38:50.676Z,101756.91
2022-11-05T18:41:18.790Z,101762.19
2022-11-05T18:43:45.927Z,101751.59
2022-11-05T18:46:35.856Z,101747.13
2022-11-05T18:49:00.688Z,101745.38
2022-11-05T18:51:28.177Z,101737.41
2022-11-05T18:53:55.860Z,101740.94
2022-11-05T18:56:23.649Z,101745.34
2022-11-05T18:59:03.317Z,101736.50
2022-11-05T19:01:39.589Z,101740.00
2022-11-05T19:04:06.584Z,101739.16
2022-11-05T19:06:34.938Z,101723.22
2022-11-05T19:09:02.331Z,101723.19
2022-11-05T19:11:29.477Z,101722.31
2022-11-05T19:13:56.371Z,101721.41
2022-11-05T19:16:27.838Z,101725.84
2022-11-05T19:18:57.508Z,101724.97
2022-11-05T19:21:26.332Z,101703.69
2022-11-05T19:23:53.948Z,101698.31
2022-11-05T19:26:28.377Z,101685.09
2022-11-05T19:28:58.972Z,101677.97
2022-11-05T19:31:26.028Z,101686.88
2022-11-05T19:33:54.217Z,101674.50
2022-11-05T19:36:23.700Z,101672.78
2022-11-05T19:38:57.430Z,101676.31
2022-11-05T19:41:26.142Z,101679.91
2022-11-05T19:43:54.301Z,101678.16
2022-11-05T19:46:23.365Z,101682.63
2022-11-05T19:48:51.180Z,101682.63
2022-11-05T19:51:25.935Z,101680.00
2022-11-05T19:53:54.940Z,101691.50
2022-11-05T19:56:25.526Z,101689.69
2022-11-05T19:58:53.553Z,101685.28
2022-11-05T20:01:22.965Z,101692.38
2022-11-05T20:03:51.338Z,101698.53
2022-11-05T20:06:22.509Z,101694.09
2022-11-05T20:11:37.739Z,101698.50
2022-11-05T20:14:06.092Z,101681.72
2022-11-05T20:16:42.189Z,101676.41
2022-11-05T20:19:14.183Z,101671.09
2022-11-05T20:21:41.697Z,101673.78
2022-11-05T20:24:09.766Z,101673.81
2022-11-05T20:26:36.662Z,101675.53
2022-11-05T20:29:03.714Z,101677.31
2022-11-05T20:31:31.036Z,101669.38
2022-11-05T20:33:58.146Z,101669.38
2022-11-05T20:36:26.158Z,101673.75
2022-11-05T20:38:58.176Z,101665.81
2022-11-05T20:41:26.593Z,101674.69
2022-11-05T20:43:54.284Z,101674.69
2022-11-05T20:46:22.732Z,101660.50
2022-11-05T20:48:50.569Z,101667.59
2022-11-05T20:51:21.327Z,101663.97
2022-11-05T20:53:49.194Z,101669.34
2022-11-05T20:56:19.742Z,101668.44
2022-11-05T20:58:47.322Z,101660.56
2022-11-05T21:01:16.413Z,101663.25
2022-11-05T21:03:45.001Z,101683.66
2022-11-05T21:06:12.683Z,101678.38
2022-11-05T21:08:40.134Z,101681.06
2022-11-05T21:11:08.103Z,101677.59
2022-11-05T21:13:35.878Z,101677.66
2022-11-05T21:16:06.287Z,101676.75
2022-11-05T21:18:36.365Z,101669.69
2022-11-05T21:21:09.810Z,101680.38
2022-11-05T21:23:36.815Z,101677.78
2022-11-05T21:26:09.285Z,101675.16
2022-11-05T21:28:39.610Z,101672.53
2022-11-05T21:31:07.831Z,101676.09
2022-11-05T21:33:35.110Z,101673.47
2022-11-05T21:36:09.189Z,101677.00
2022-11-05T21:38:36.416Z,101677.03
2022-11-05T21:41:04.849Z,101673.44
2022-11-05T21:43:31.862Z,101680.47
2022-11-05T21:46:02.765Z,101661.03
2022-11-05T21:48:30.543Z,101662.75
2022-11-05T21:51:16.000Z,101669.81
2022-11-05T21:54:01.470Z,101671.53
2022-11-05T21:56:47.912Z,101662.66
2022-11-05T21:59:36.662Z,101649.34
2022-11-05T22:02:04.352Z,101645.81
2022-11-05T22:04:34.375Z,101652.00
2022-11-05T22:07:01.815Z,101646.69
2022-11-05T22:09:29.379Z,101645.78
2022-11-05T22:11:56.318Z,101642.22
2022-11-05T22:14:24.329Z,101649.31
2022-11-05T22:16:51.433Z,101655.50
2022-11-05T22:19:18.547Z,101648.44
2022-11-05T22:21:45.528Z,101644.00
2022-11-05T22:24:12.753Z,101638.69
2022-11-05T22:26:41.274Z,101638.69
2022-11-05T22:29:08.969Z,101627.19
2022-11-05T22:31:36.792Z,101619.22
2022-11-05T22:34:05.421Z,101606.81
2022-11-05T22:36:34.266Z,101608.63
2022-11-05T22:39:01.917Z,101612.19
2022-11-05T22:41:29.411Z,101611.25
2022-11-05T22:43:56.701Z,101618.31
2022-11-05T22:46:25.849Z,101625.41
2022-11-05T22:48:53.202Z,101614.78
2022-11-05T22:51:27.450Z,101628.06
2022-11-05T22:53:55.054Z,101618.31
2022-11-05T22:56:26.876Z,101628.94
2022-11-05T22:58:54.430Z,101624.53
2022-11-05T23:01:23.275Z,101609.47
2022-11-05T23:03:53.109Z,101619.22
2022-11-05T23:06:48.590Z,101612.13
2022-11-05T23:09:44.272Z,101607.69
2022-11-05T23:12:32.014Z,101605.03
2022-11-05T23:15:01.440Z,101591.72
2022-11-05T23:17:47.282Z,101589.94
2022-11-05T23:20:40.209Z,101595.25
2022-11-05T23:23:30.647Z,101589.94
2022-11-05T23:26:21.743Z,101597.91
2022-11-05T23:28:48.587Z,101594.41
2022-11-05T23:31:34.203Z,101589.13
2022-11-05T23:34:01.071Z,101576.84
2022-11-05T23:36:46.411Z,101575.94
2022-11-05T23:39:13.295Z,101581.28
2022-11-05T23:41:58.622Z,101577.78
2022-11-05T23:44:44.146Z,101581.31
2022-11-05T23:47:29.699Z,101587.53
2022-11-05T23:49:56.569Z,101597.31
2022-11-05T23:52:23.431Z,101594.72
2022-11-05T23:54:50.301Z,101581.47
2022-11-05T23:57:17.158Z,101579.69
2022-11-05T23:59:44.040Z,101569.91
